Hovedside
METAR-TAF:

METAR-TAF

Lufthavner :

Uppsala, Sverige

breddegrad: 59-53N, lengdegrad: 017-36E, høyde over havet: 21 m

METAR: fraværende

Tid: 20:45 (18:45 UTC)

Varsel

Denne rapporten ble laget for 4 timer og 45 minutter siden, klokken 14:00 UTC
Varsel gyldig fra 22. klokken 14 UTC til 22. klokken 15 UTC
Vind 8 kt fra Nordøst
Sikt 10 km eller mer
Brutte skyer i en høyde av 800 ft
Midlertidig
fra 22. klokken 14 UTC til 22. klokken 15 UTC
Spredte skyer i en høyde av 2000 ft

TAF: ESCM 221400Z 2214/2215 05008KT 9999 BKN008 TEMPO 2214/2215 SCT020 RMK MIL

Værobservasjoner og værvarsel for over 4000 flyplasser (METAR- og TAF-rapporter).

Tilgjengelige stasjoner er representert av de røde og gule prikkene på kartet.

Hold musepekeren over prikken for å se navnet på stasjonen.

Klikk så for å se værobservasjoner og -varsler.

For å forandre kartet kan du klikke på den grønne knappen med svart kryss for å zoome inn, på den grønne knappen med strek for å zoome ut, eller på de grønne pilene for å se tilstøtende kart.


METAR-TAF: